sensor_id;sensor_type;location;lat;lon;timestamp;P1;durP1;ratioP1;P2;durP2;ratioP2
72603;SDS011;60645;56.968;24.196;2022-11-18T05:36:19;230.13;;;35.10;;
72603;SDS011;60645;56.968;24.196;2022-11-18T05:38:51;103.90;;;14.85;;
72603;SDS011;60645;56.968;24.196;2022-11-18T05:41:23;47.28;;;9.73;;
72603;SDS011;60645;56.968;24.196;2022-11-18T05:44:14;44.15;;;6.57;;
72603;SDS011;60645;56.968;24.196;2022-11-18T05:46:50;38.78;;;5.95;;
72603;SDS011;60645;56.968;24.196;2022-11-18T05:49:37;20.75;;;3.30;;
72603;SDS011;60645;56.968;24.196;2022-11-18T05:52:18;25.33;;;3.55;;
72603;SDS011;60645;56.968;24.196;2022-11-18T05:54:51;21.30;;;2.90;;
72603;SDS011;60645;56.968;24.196;2022-11-18T05:57:26;22.50;;;3.15;;
72603;SDS011;60645;56.968;24.196;2022-11-18T06:00:02;12.80;;;3.13;;
72603;SDS011;60645;56.968;24.196;2022-11-18T06:02:35;14.20;;;2.42;;
72603;SDS011;60645;56.968;24.196;2022-11-18T06:05:13;15.75;;;2.05;;
72603;SDS011;60645;56.968;24.196;2022-11-18T06:07:49;14.95;;;2.50;;
72603;SDS011;60645;56.968;24.196;2022-11-18T06:10:21;13.00;;;2.80;;
72603;SDS011;60645;56.968;24.196;2022-11-18T06:12:54;8.05;;;1.52;;
72603;SDS011;60645;56.968;24.196;2022-11-18T06:15:33;7.40;;;1.92;;
72603;SDS011;60645;56.968;24.196;2022-11-18T06:18:12;9.52;;;2.10;;
72603;SDS011;60645;56.968;24.196;2022-11-18T06:20:54;11.10;;;1.48;;
72603;SDS011;60645;56.968;24.196;2022-11-18T06:23:28;7.82;;;1.63;;
72603;SDS011;60645;56.968;24.196;2022-11-18T06:46:45;8.68;;;1.13;;
72603;SDS011;60645;56.968;24.196;2022-11-18T06:49:38;5.22;;;1.00;;
72603;SDS011;60645;56.968;24.196;2022-11-18T06:52:09;5.15;;;1.38;;
72603;SDS011;60645;56.968;24.196;2022-11-18T06:54:39;7.93;;;1.23;;
72603;SDS011;60645;56.968;24.196;2022-11-18T06:57:08;6.15;;;1.17;;
72603;SDS011;60645;56.968;24.196;2022-11-18T06:59:37;3.53;;;1.08;;
72603;SDS011;60645;56.968;24.196;2022-11-18T07:02:07;6.28;;;1.33;;
72603;SDS011;60645;56.968;24.196;2022-11-18T07:07:26;4.38;;;0.93;;
72603;SDS011;60645;56.968;24.196;2022-11-18T07:10:07;4.40;;;1.13;;
72603;SDS011;60645;56.968;24.196;2022-11-18T07:12:37;3.70;;;0.80;;
72603;SDS011;60645;56.968;24.196;2022-11-18T07:15:19;7.13;;;0.93;;
72603;SDS011;60645;56.968;24.196;2022-11-18T07:17:50;4.53;;;1.25;;
72603;SDS011;60645;56.968;24.196;2022-11-18T07:20:24;4.85;;;1.20;;
72603;SDS011;60645;56.968;24.196;2022-11-18T07:23:00;8.57;;;1.10;;
72603;SDS011;60645;56.968;24.196;2022-11-18T07:25:37;5.15;;;1.15;;
72603;SDS011;60645;56.968;24.196;2022-11-18T07:28:17;4.13;;;1.05;;
72603;SDS011;60645;56.968;24.196;2022-11-18T07:30:46;5.65;;;1.10;;
72603;SDS011;60645;56.968;24.196;2022-11-18T07:33:27;7.10;;;1.02;;
72603;SDS011;60645;56.968;24.196;2022-11-18T07:36:00;5.28;;;1.05;;
72603;SDS011;60645;56.968;24.196;2022-11-18T07:38:39;4.10;;;0.98;;
72603;SDS011;60645;56.968;24.196;2022-11-18T07:41:19;4.57;;;0.93;;
72603;SDS011;60645;56.968;24.196;2022-11-18T07:44:06;3.58;;;1.42;;
72603;SDS011;60645;56.968;24.196;2022-11-18T07:46:41;4.53;;;1.25;;
72603;SDS011;60645;56.968;24.196;2022-11-18T07:49:22;3.00;;;1.08;;
72603;SDS011;60645;56.968;24.196;2022-11-18T07:52:02;3.00;;;0.95;;
72603;SDS011;60645;56.968;24.196;2022-11-18T07:54:33;4.95;;;1.58;;
72603;SDS011;60645;56.968;24.196;2022-11-18T07:57:08;4.05;;;1.17;;
72603;SDS011;60645;56.968;24.196;2022-11-18T07:59:47;3.33;;;1.23;;
72603;SDS011;60645;56.968;24.196;2022-11-18T08:02:23;2.50;;;1.00;;
72603;SDS011;60645;56.968;24.196;2022-11-18T08:05:06;2.35;;;0.98;;
72603;SDS011;60645;56.968;24.196;2022-11-18T08:07:55;3.08;;;0.93;;
72603;SDS011;60645;56.968;24.196;2022-11-18T08:10:35;3.60;;;0.77;;
72603;SDS011;60645;56.968;24.196;2022-11-18T08:13:05;4.38;;;1.10;;
72603;SDS011;60645;56.968;24.196;2022-11-18T08:15:45;3.22;;;0.95;;
72603;SDS011;60645;56.968;24.196;2022-11-18T08:18:15;3.55;;;1.55;;
72603;SDS011;60645;56.968;24.196;2022-11-18T08:20:54;3.03;;;1.10;;
72603;SDS011;60645;56.968;24.196;2022-11-18T08:23:29;3.28;;;1.20;;
72603;SDS011;60645;56.968;24.196;2022-11-18T08:26:13;4.07;;;1.65;;
72603;SDS011;60645;56.968;24.196;2022-11-18T08:28:43;3.55;;;1.13;;
72603;SDS011;60645;56.968;24.196;2022-11-18T08:31:23;3.72;;;1.20;;
72603;SDS011;60645;56.968;24.196;2022-11-18T08:33:56;5.00;;;1.67;;
72603;SDS011;60645;56.968;24.196;2022-11-18T08:36:30;7.25;;;1.38;;
72603;SDS011;60645;56.968;24.196;2022-11-18T08:39:10;4.53;;;1.25;;
72603;SDS011;60645;56.968;24.196;2022-11-18T08:41:56;5.80;;;1.45;;
72603;SDS011;60645;56.968;24.196;2022-11-18T08:44:44;5.28;;;1.73;;
72603;SDS011;60645;56.968;24.196;2022-11-18T08:47:18;2.88;;;1.15;;
72603;SDS011;60645;56.968;24.196;2022-11-18T08:49:51;5.25;;;1.38;;
72603;SDS011;60645;56.968;24.196;2022-11-18T08:52:26;4.57;;;1.20;;
72603;SDS011;60645;56.968;24.196;2022-11-18T08:55:02;4.43;;;1.20;;
72603;SDS011;60645;56.968;24.196;2022-11-18T08:57:38;4.82;;;1.30;;
72603;SDS011;60645;56.968;24.196;2022-11-18T09:00:14;4.90;;;1.60;;
72603;SDS011;60645;56.968;24.196;2022-11-18T09:02:51;5.63;;;2.28;;
72603;SDS011;60645;56.968;24.196;2022-11-18T09:05:23;6.85;;;2.25;;
72603;SDS011;60645;56.968;24.196;2022-11-18T09:07:59;4.82;;;2.00;;
72603;SDS011;60645;56.968;24.196;2022-11-18T09:10:33;4.75;;;1.98;;
72603;SDS011;60645;56.968;24.196;2022-11-18T09:13:19;6.43;;;2.15;;
72603;SDS011;60645;56.968;24.196;2022-11-18T09:16:17;5.68;;;1.80;;
72603;SDS011;60645;56.968;24.196;2022-11-18T09:18:55;6.75;;;2.13;;
72603;SDS011;60645;56.968;24.196;2022-11-18T09:21:56;5.55;;;2.10;;
72603;SDS011;60645;56.968;24.196;2022-11-18T09:24:43;4.53;;;2.20;;
72603;SDS011;60645;56.968;24.196;2022-11-18T09:27:35;5.35;;;2.25;;
72603;SDS011;60645;56.968;24.196;2022-11-18T09:30:15;3.88;;;1.60;;
72603;SDS011;60645;56.968;24.196;2022-11-18T09:32:53;3.95;;;1.65;;
72603;SDS011;60645;56.968;24.196;2022-11-18T09:35:32;3.78;;;1.20;;
72603;SDS011;60645;56.968;24.196;2022-11-18T09:46:56;4.05;;;1.92;;
72603;SDS011;60645;56.968;24.196;2022-11-18T09:49:30;4.25;;;1.50;;
72603;SDS011;60645;56.968;24.196;2022-11-18T09:55:22;2.97;;;1.27;;
72603;SDS011;60645;56.968;24.196;2022-11-18T09:58:03;4.68;;;1.42;;
72603;SDS011;60645;56.968;24.196;2022-11-18T10:00:39;3.85;;;1.40;;
72603;SDS011;60645;56.968;24.196;2022-11-18T10:03:26;3.65;;;1.23;;
72603;SDS011;60645;56.968;24.196;2022-11-18T10:11:45;5.95;;;2.20;;
72603;SDS011;60645;56.968;24.196;2022-11-18T10:25:29;5.30;;;2.22;;
72603;SDS011;60645;56.968;24.196;2022-11-18T10:28:16;5.90;;;2.67;;
72603;SDS011;60645;56.968;24.196;2022-11-18T10:50:49;9.90;;;5.97;;
72603;SDS011;60645;56.968;24.196;2022-11-18T10:53:31;8.40;;;4.82;;
72603;SDS011;60645;56.968;24.196;2022-11-18T10:56:12;8.10;;;3.80;;
72603;SDS011;60645;56.968;24.196;2022-11-18T10:58:46;4.22;;;3.15;;
72603;SDS011;60645;56.968;24.196;2022-11-18T11:01:34;6.47;;;3.92;;
72603;SDS011;60645;56.968;24.196;2022-11-18T11:06:34;6.22;;;3.83;;
72603;SDS011;60645;56.968;24.196;2022-11-18T11:11:36;7.53;;;3.03;;
72603;SDS011;60645;56.968;24.196;2022-11-18T11:19:19;4.60;;;2.88;;
72603;SDS011;60645;56.968;24.196;2022-11-18T11:21:49;6.63;;;3.15;;
72603;SDS011;60645;56.968;24.196;2022-11-18T11:24:16;3.53;;;2.28;;
72603;SDS011;60645;56.968;24.196;2022-11-18T11:26:51;4.03;;;2.55;;
72603;SDS011;60645;56.968;24.196;2022-11-18T11:29:52;5.50;;;2.72;;
72603;SDS011;60645;56.968;24.196;2022-11-18T11:32:34;5.35;;;3.00;;
72603;SDS011;60645;56.968;24.196;2022-11-18T11:35:20;2.90;;;2.10;;
72603;SDS011;60645;56.968;24.196;2022-11-18T11:37:54;5.68;;;2.80;;
72603;SDS011;60645;56.968;24.196;2022-11-18T11:43:44;3.72;;;3.15;;
72603;SDS011;60645;56.968;24.196;2022-11-18T11:51:00;3.65;;;2.03;;
72603;SDS011;60645;56.968;24.196;2022-11-18T12:06:51;3.42;;;1.50;;
72603;SDS011;60645;56.968;24.196;2022-11-18T12:09:37;3.08;;;1.92;;
72603;SDS011;60645;56.968;24.196;2022-11-18T12:12:11;2.63;;;1.77;;
72603;SDS011;60645;56.968;24.196;2022-11-18T12:15:03;3.25;;;2.10;;
72603;SDS011;60645;56.968;24.196;2022-11-18T12:17:36;5.22;;;2.85;;
72603;SDS011;60645;56.968;24.196;2022-11-18T12:25:52;3.00;;;1.67;;
72603;SDS011;60645;56.968;24.196;2022-11-18T12:30:54;3.03;;;1.85;;
72603;SDS011;60645;56.968;24.196;2022-11-18T12:34:26;3.38;;;2.33;;
72603;SDS011;60645;56.968;24.196;2022-11-18T12:36:32;3.75;;;2.10;;
72603;SDS011;60645;56.968;24.196;2022-11-18T12:44:32;4.18;;;2.72;;
72603;SDS011;60645;56.968;24.196;2022-11-18T12:46:59;4.25;;;2.38;;
72603;SDS011;60645;56.968;24.196;2022-11-18T12:54:26;3.22;;;1.90;;
72603;SDS011;60645;56.968;24.196;2022-11-18T12:56:54;2.35;;;1.75;;
72603;SDS011;60645;56.968;24.196;2022-11-18T12:59:27;3.08;;;2.47;;
72603;SDS011;60645;56.968;24.196;2022-11-18T13:02:02;3.65;;;2.15;;
72603;SDS011;60645;56.968;24.196;2022-11-18T13:04:29;4.40;;;2.13;;
72603;SDS011;60645;56.968;24.196;2022-11-18T13:06:57;3.13;;;2.15;;
72603;SDS011;60645;56.968;24.196;2022-11-18T13:09:26;3.42;;;1.88;;
72603;SDS011;60645;56.968;24.196;2022-11-18T13:11:59;2.17;;;1.67;;
72603;SDS011;60645;56.968;24.196;2022-11-18T13:14:29;2.90;;;1.60;;
72603;SDS011;60645;56.968;24.196;2022-11-18T13:20:24;3.83;;;2.05;;
72603;SDS011;60645;56.968;24.196;2022-11-18T13:22:59;2.65;;;1.80;;
72603;SDS011;60645;56.968;24.196;2022-11-18T13:25:46;4.07;;;2.15;;
72603;SDS011;60645;56.968;24.196;2022-11-18T13:30:53;1.98;;;1.73;;
72603;SDS011;60645;56.968;24.196;2022-11-18T13:33:23;2.20;;;1.60;;
72603;SDS011;60645;56.968;24.196;2022-11-18T13:35:50;3.05;;;1.73;;
72603;SDS011;60645;56.968;24.196;2022-11-18T13:38:21;2.58;;;1.77;;
72603;SDS011;60645;56.968;24.196;2022-11-18T13:40:53;4.65;;;2.15;;
72603;SDS011;60645;56.968;24.196;2022-11-18T13:43:30;2.25;;;1.50;;
72603;SDS011;60645;56.968;24.196;2022-11-18T13:46:19;2.13;;;1.40;;
72603;SDS011;60645;56.968;24.196;2022-11-18T13:48:50;2.15;;;1.40;;
72603;SDS011;60645;56.968;24.196;2022-11-18T13:51:17;2.33;;;1.40;;
72603;SDS011;60645;56.968;24.196;2022-11-18T13:53:46;4.78;;;1.73;;
72603;SDS011;60645;56.968;24.196;2022-11-18T13:56:15;2.90;;;1.80;;
72603;SDS011;60645;56.968;24.196;2022-11-18T13:58:51;2.80;;;1.80;;
72603;SDS011;60645;56.968;24.196;2022-11-18T14:01:39;5.68;;;2.88;;
72603;SDS011;60645;56.968;24.196;2022-11-18T14:04:16;7.22;;;2.80;;
72603;SDS011;60645;56.968;24.196;2022-11-18T14:06:45;5.15;;;2.72;;
72603;SDS011;60645;56.968;24.196;2022-11-18T14:11:41;2.67;;;1.60;;
72603;SDS011;60645;56.968;24.196;2022-11-18T14:14:11;3.22;;;2.05;;
72603;SDS011;60645;56.968;24.196;2022-11-18T14:16:53;4.03;;;2.50;;
72603;SDS011;60645;56.968;24.196;2022-11-18T14:19:29;3.33;;;1.77;;
72603;SDS011;60645;56.968;24.196;2022-11-18T14:22:04;3.47;;;2.00;;
72603;SDS011;60645;56.968;24.196;2022-11-18T14:24:38;4.03;;;2.00;;
72603;SDS011;60645;56.968;24.196;2022-11-18T14:29:51;5.28;;;2.85;;
72603;SDS011;60645;56.968;24.196;2022-11-18T14:32:18;5.63;;;2.63;;
72603;SDS011;60645;56.968;24.196;2022-11-18T14:34:55;4.00;;;2.05;;
72603;SDS011;60645;56.968;24.196;2022-11-18T14:37:23;5.93;;;2.72;;
72603;SDS011;60645;56.968;24.196;2022-11-18T14:39:54;4.45;;;2.70;;
72603;SDS011;60645;56.968;24.196;2022-11-18T14:44:49;3.03;;;2.15;;
72603;SDS011;60645;56.968;24.196;2022-11-18T14:47:23;3.08;;;2.28;;
72603;SDS011;60645;56.968;24.196;2022-11-18T14:49:52;4.80;;;2.50;;
72603;SDS011;60645;56.968;24.196;2022-11-18T14:52:19;6.15;;;2.78;;
72603;SDS011;60645;56.968;24.196;2022-11-18T14:54:46;4.03;;;2.63;;
72603;SDS011;60645;56.968;24.196;2022-11-18T14:57:15;4.05;;;2.67;;
72603;SDS011;60645;56.968;24.196;2022-11-18T14:59:44;2.95;;;2.45;;
72603;SDS011;60645;56.968;24.196;2022-11-18T15:02:12;4.90;;;3.63;;
72603;SDS011;60645;56.968;24.196;2022-11-18T15:04:40;2.80;;;2.08;;
72603;SDS011;60645;56.968;24.196;2022-11-18T15:07:11;4.22;;;2.38;;
72603;SDS011;60645;56.968;24.196;2022-11-18T15:09:48;3.38;;;2.17;;
72603;SDS011;60645;56.968;24.196;2022-11-18T15:12:16;3.92;;;2.53;;
72603;SDS011;60645;56.968;24.196;2022-11-18T15:14:43;3.38;;;2.55;;
72603;SDS011;60645;56.968;24.196;2022-11-18T15:17:10;4.22;;;2.38;;
72603;SDS011;60645;56.968;24.196;2022-11-18T15:19:38;3.45;;;2.25;;
72603;SDS011;60645;56.968;24.196;2022-11-18T15:22:07;5.10;;;2.33;;
72603;SDS011;60645;56.968;24.196;2022-11-18T15:24:34;4.25;;;2.67;;
72603;SDS011;60645;56.968;24.196;2022-11-18T15:27:02;3.72;;;1.95;;
72603;SDS011;60645;56.968;24.196;2022-11-18T15:29:30;3.30;;;2.10;;
72603;SDS011;60645;56.968;24.196;2022-11-18T15:31:57;3.88;;;2.15;;
72603;SDS011;60645;56.968;24.196;2022-11-18T15:34:25;4.50;;;2.63;;
72603;SDS011;60645;56.968;24.196;2022-11-18T15:36:52;3.47;;;2.22;;
72603;SDS011;60645;56.968;24.196;2022-11-18T15:39:20;3.63;;;2.38;;
72603;SDS011;60645;56.968;24.196;2022-11-18T15:41:47;4.90;;;2.70;;
72603;SDS011;60645;56.968;24.196;2022-11-18T15:44:15;3.95;;;2.67;;
72603;SDS011;60645;56.968;24.196;2022-11-18T15:46:43;4.57;;;2.30;;
72603;SDS011;60645;56.968;24.196;2022-11-18T15:49:13;3.95;;;2.13;;
72603;SDS011;60645;56.968;24.196;2022-11-18T15:51:42;4.05;;;1.90;;
72603;SDS011;60645;56.968;24.196;2022-11-18T15:54:10;6.38;;;2.70;;
72603;SDS011;60645;56.968;24.196;2022-11-18T15:56:37;3.88;;;2.47;;
72603;SDS011;60645;56.968;24.196;2022-11-18T15:59:06;2.85;;;1.80;;
72603;SDS011;60645;56.968;24.196;2022-11-18T16:01:34;3.92;;;2.30;;
72603;SDS011;60645;56.968;24.196;2022-11-18T16:04:03;3.00;;;2.00;;
72603;SDS011;60645;56.968;24.196;2022-11-18T16:06:31;3.97;;;2.70;;
72603;SDS011;60645;56.968;24.196;2022-11-18T16:08:59;5.63;;;2.40;;
72603;SDS011;60645;56.968;24.196;2022-11-18T16:11:27;2.97;;;1.90;;
72603;SDS011;60645;56.968;24.196;2022-11-18T16:14:14;4.28;;;2.30;;
72603;SDS011;60645;56.968;24.196;2022-11-18T16:16:43;4.55;;;2.90;;
72603;SDS011;60645;56.968;24.196;2022-11-18T16:19:11;4.40;;;2.58;;
72603;SDS011;60645;56.968;24.196;2022-11-18T16:21:40;4.97;;;3.22;;
72603;SDS011;60645;56.968;24.196;2022-11-18T16:24:09;2.78;;;1.70;;
72603;SDS011;60645;56.968;24.196;2022-11-18T16:26:37;4.97;;;2.75;;
72603;SDS011;60645;56.968;24.196;2022-11-18T16:29:05;3.80;;;2.85;;
72603;SDS011;60645;56.968;24.196;2022-11-18T16:31:33;4.60;;;2.92;;
72603;SDS011;60645;56.968;24.196;2022-11-18T16:36:34;3.28;;;2.03;;
72603;SDS011;60645;56.968;24.196;2022-11-18T16:39:09;3.70;;;1.98;;
72603;SDS011;60645;56.968;24.196;2022-11-18T16:41:36;3.17;;;1.80;;
72603;SDS011;60645;56.968;24.196;2022-11-18T16:44:05;3.00;;;1.65;;
72603;SDS011;60645;56.968;24.196;2022-11-18T16:46:34;3.80;;;2.42;;
72603;SDS011;60645;56.968;24.196;2022-11-18T16:49:02;3.38;;;1.88;;
72603;SDS011;60645;56.968;24.196;2022-11-18T16:51:30;2.58;;;1.15;;
72603;SDS011;60645;56.968;24.196;2022-11-18T16:53:59;4.95;;;2.60;;
72603;SDS011;60645;56.968;24.196;2022-11-18T16:56:27;2.97;;;1.90;;
72603;SDS011;60645;56.968;24.196;2022-11-18T16:59:05;2.63;;;1.83;;
72603;SDS011;60645;56.968;24.196;2022-11-18T17:01:33;3.83;;;1.70;;
72603;SDS011;60645;56.968;24.196;2022-11-18T17:04:00;3.63;;;2.58;;
72603;SDS011;60645;56.968;24.196;2022-11-18T17:06:28;4.07;;;2.00;;
72603;SDS011;60645;56.968;24.196;2022-11-18T17:08:56;2.08;;;1.65;;
72603;SDS011;60645;56.968;24.196;2022-11-18T17:11:24;4.15;;;1.98;;
72603;SDS011;60645;56.968;24.196;2022-11-18T17:13:51;4.05;;;2.65;;
72603;SDS011;60645;56.968;24.196;2022-11-18T17:16:23;4.40;;;2.58;;
72603;SDS011;60645;56.968;24.196;2022-11-18T17:18:57;4.25;;;2.38;;
72603;SDS011;60645;56.968;24.196;2022-11-18T17:21:25;3.97;;;1.80;;
72603;SDS011;60645;56.968;24.196;2022-11-18T17:23:53;3.88;;;2.13;;
72603;SDS011;60645;56.968;24.196;2022-11-18T17:26:22;3.45;;;2.30;;
72603;SDS011;60645;56.968;24.196;2022-11-18T17:28:50;6.38;;;3.08;;
72603;SDS011;60645;56.968;24.196;2022-11-18T17:31:18;2.88;;;2.10;;
72603;SDS011;60645;56.968;24.196;2022-11-18T17:33:46;3.22;;;2.00;;
72603;SDS011;60645;56.968;24.196;2022-11-18T17:36:20;3.22;;;2.13;;
72603;SDS011;60645;56.968;24.196;2022-11-18T17:38:49;4.30;;;2.10;;
72603;SDS011;60645;56.968;24.196;2022-11-18T17:41:17;3.33;;;1.90;;
72603;SDS011;60645;56.968;24.196;2022-11-18T17:44:04;3.05;;;2.10;;
72603;SDS011;60645;56.968;24.196;2022-11-18T17:46:34;4.00;;;2.45;;
72603;SDS011;60645;56.968;24.196;2022-11-18T17:49:09;4.55;;;2.40;;
72603;SDS011;60645;56.968;24.196;2022-11-18T17:51:43;2.97;;;2.05;;
72603;SDS011;60645;56.968;24.196;2022-11-18T17:54:13;2.53;;;1.55;;
72603;SDS011;60645;56.968;24.196;2022-11-18T17:56:40;4.00;;;2.00;;
72603;SDS011;60645;56.968;24.196;2022-11-18T17:59:08;4.10;;;1.88;;
72603;SDS011;60645;56.968;24.196;2022-11-18T18:01:35;4.43;;;1.80;;
72603;SDS011;60645;56.968;24.196;2022-11-18T18:04:03;2.58;;;1.38;;
72603;SDS011;60645;56.968;24.196;2022-11-18T18:06:39;2.67;;;1.67;;
72603;SDS011;60645;56.968;24.196;2022-11-18T18:09:10;3.20;;;1.90;;
72603;SDS011;60645;56.968;24.196;2022-11-18T18:11:40;4.82;;;1.95;;
72603;SDS011;60645;56.968;24.196;2022-11-18T18:14:08;3.85;;;1.70;;
72603;SDS011;60645;56.968;24.196;2022-11-18T18:16:40;2.70;;;1.27;;
72603;SDS011;60645;56.968;24.196;2022-11-18T18:19:08;2.60;;;1.73;;
72603;SDS011;60645;56.968;24.196;2022-11-18T18:21:36;2.38;;;1.60;;
72603;SDS011;60645;56.968;24.196;2022-11-18T18:24:03;3.55;;;1.70;;
72603;SDS011;60645;56.968;24.196;2022-11-18T18:26:31;2.95;;;2.65;;
72603;SDS011;60645;56.968;24.196;2022-11-18T18:28:59;2.58;;;1.50;;
72603;SDS011;60645;56.968;24.196;2022-11-18T18:31:26;2.80;;;1.77;;
72603;SDS011;60645;56.968;24.196;2022-11-18T18:33:54;2.78;;;1.70;;
72603;SDS011;60645;56.968;24.196;2022-11-18T18:36:21;4.22;;;2.08;;
72603;SDS011;60645;56.968;24.196;2022-11-18T18:38:50;4.97;;;2.40;;
72603;SDS011;60645;56.968;24.196;2022-11-18T18:41:19;3.20;;;1.88;;
72603;SDS011;60645;56.968;24.196;2022-11-18T18:43:47;2.20;;;1.42;;
72603;SDS011;60645;56.968;24.196;2022-11-18T18:46:18;2.72;;;1.55;;
72603;SDS011;60645;56.968;24.196;2022-11-18T18:51:25;3.13;;;1.52;;
72603;SDS011;60645;56.968;24.196;2022-11-18T18:53:56;2.53;;;1.48;;
72603;SDS011;60645;56.968;24.196;2022-11-18T18:56:24;4.10;;;1.70;;
72603;SDS011;60645;56.968;24.196;2022-11-18T18:58:51;1.90;;;1.45;;
72603;SDS011;60645;56.968;24.196;2022-11-18T19:01:19;2.60;;;1.42;;
72603;SDS011;60645;56.968;24.196;2022-11-18T19:03:46;2.85;;;1.65;;
72603;SDS011;60645;56.968;24.196;2022-11-18T19:06:18;2.88;;;1.92;;
72603;SDS011;60645;56.968;24.196;2022-11-18T19:09:07;1.73;;;1.33;;
72603;SDS011;60645;56.968;24.196;2022-11-18T19:11:38;1.95;;;1.20;;
72603;SDS011;60645;56.968;24.196;2022-11-18T19:14:24;2.58;;;1.67;;
72603;SDS011;60645;56.968;24.196;2022-11-18T19:16:53;2.22;;;1.48;;
72603;SDS011;60645;56.968;24.196;2022-11-18T19:19:24;1.83;;;0.82;;
72603;SDS011;60645;56.968;24.196;2022-11-18T19:22:11;1.52;;;1.30;;
72603;SDS011;60645;56.968;24.196;2022-11-18T19:24:39;2.80;;;1.50;;
72603;SDS011;60645;56.968;24.196;2022-11-18T19:27:27;3.42;;;1.73;;
72603;SDS011;60645;56.968;24.196;2022-11-18T19:29:55;2.22;;;1.35;;
72603;SDS011;60645;56.968;24.196;2022-11-18T19:32:22;3.83;;;2.20;;
72603;SDS011;60645;56.968;24.196;2022-11-18T19:34:49;3.17;;;1.80;;
72603;SDS011;60645;56.968;24.196;2022-11-18T19:37:17;3.67;;;2.80;;
72603;SDS011;60645;56.968;24.196;2022-11-18T19:39:44;3.03;;;1.83;;
72603;SDS011;60645;56.968;24.196;2022-11-18T19:42:11;2.78;;;1.73;;
72603;SDS011;60645;56.968;24.196;2022-11-18T19:44:39;3.13;;;1.60;;
72603;SDS011;60645;56.968;24.196;2022-11-18T19:47:06;2.42;;;1.88;;
72603;SDS011;60645;56.968;24.196;2022-11-18T19:49:33;2.10;;;1.42;;
72603;SDS011;60645;56.968;24.196;2022-11-18T19:52:01;1.75;;;1.17;;
72603;SDS011;60645;56.968;24.196;2022-11-18T19:54:28;2.45;;;1.70;;
72603;SDS011;60645;56.968;24.196;2022-11-18T19:56:55;2.65;;;1.67;;
72603;SDS011;60645;56.968;24.196;2022-11-18T19:59:23;2.67;;;1.83;;
72603;SDS011;60645;56.968;24.196;2022-11-18T20:01:50;2.67;;;1.98;;
72603;SDS011;60645;56.968;24.196;2022-11-18T20:04:17;2.95;;;1.80;;
72603;SDS011;60645;56.968;24.196;2022-11-18T20:06:44;3.53;;;2.17;;
72603;SDS011;60645;56.968;24.196;2022-11-18T20:09:12;2.53;;;1.70;;
72603;SDS011;60645;56.968;24.196;2022-11-18T20:11:41;3.35;;;1.30;;
72603;SDS011;60645;56.968;24.196;2022-11-18T20:14:09;3.15;;;1.67;;
72603;SDS011;60645;56.968;24.196;2022-11-18T20:16:37;3.22;;;1.98;;
72603;SDS011;60645;56.968;24.196;2022-11-18T20:19:04;3.25;;;1.95;;
72603;SDS011;60645;56.968;24.196;2022-11-18T20:21:36;2.85;;;2.38;;
72603;SDS011;60645;56.968;24.196;2022-11-18T20:24:04;5.55;;;2.40;;
72603;SDS011;60645;56.968;24.196;2022-11-18T20:26:33;3.92;;;2.42;;
72603;SDS011;60645;56.968;24.196;2022-11-18T20:29:02;3.42;;;2.28;;
72603;SDS011;60645;56.968;24.196;2022-11-18T20:31:30;3.08;;;2.25;;
72603;SDS011;60645;56.968;24.196;2022-11-18T20:34:00;3.70;;;1.45;;
72603;SDS011;60645;56.968;24.196;2022-11-18T20:36:32;3.35;;;1.90;;
72603;SDS011;60645;56.968;24.196;2022-11-18T20:39:10;3.47;;;1.67;;
72603;SDS011;60645;56.968;24.196;2022-11-18T20:41:37;3.17;;;1.80;;
72603;SDS011;60645;56.968;24.196;2022-11-18T20:44:05;2.97;;;2.17;;
72603;SDS011;60645;56.968;24.196;2022-11-18T20:46:32;2.83;;;1.77;;
72603;SDS011;60645;56.968;24.196;2022-11-18T20:49:00;2.63;;;1.65;;
72603;SDS011;60645;56.968;24.196;2022-11-18T20:51:27;3.13;;;2.08;;
72603;SDS011;60645;56.968;24.196;2022-11-18T20:53:55;3.72;;;1.80;;
72603;SDS011;60645;56.968;24.196;2022-11-18T20:56:23;3.58;;;1.80;;
72603;SDS011;60645;56.968;24.196;2022-11-18T20:58:51;2.15;;;1.40;;
72603;SDS011;60645;56.968;24.196;2022-11-18T21:01:19;3.00;;;1.90;;
72603;SDS011;60645;56.968;24.196;2022-11-18T21:03:50;2.65;;;1.48;;
72603;SDS011;60645;56.968;24.196;2022-11-18T21:06:18;3.08;;;1.60;;
72603;SDS011;60645;56.968;24.196;2022-11-18T21:08:45;2.50;;;1.60;;
72603;SDS011;60645;56.968;24.196;2022-11-18T21:11:13;1.85;;;1.15;;
72603;SDS011;60645;56.968;24.196;2022-11-18T21:13:42;3.92;;;2.22;;
72603;SDS011;60645;56.968;24.196;2022-11-18T21:16:44;1.98;;;1.63;;
72603;SDS011;60645;56.968;24.196;2022-11-18T21:19:12;1.83;;;1.30;;
72603;SDS011;60645;56.968;24.196;2022-11-18T21:21:39;2.70;;;1.73;;
72603;SDS011;60645;56.968;24.196;2022-11-18T21:24:20;2.90;;;1.58;;
72603;SDS011;60645;56.968;24.196;2022-11-18T21:26:49;2.70;;;1.67;;
72603;SDS011;60645;56.968;24.196;2022-11-18T21:29:16;2.40;;;2.20;;
72603;SDS011;60645;56.968;24.196;2022-11-18T21:31:45;2.45;;;1.70;;
72603;SDS011;60645;56.968;24.196;2022-11-18T21:34:12;2.35;;;1.77;;
72603;SDS011;60645;56.968;24.196;2022-11-18T21:36:40;2.88;;;1.77;;
72603;SDS011;60645;56.968;24.196;2022-11-18T21:39:12;2.53;;;1.52;;
72603;SDS011;60645;56.968;24.196;2022-11-18T21:41:39;2.35;;;1.45;;
72603;SDS011;60645;56.968;24.196;2022-11-18T21:44:07;3.60;;;1.80;;
72603;SDS011;60645;56.968;24.196;2022-11-18T21:46:35;2.55;;;1.40;;
72603;SDS011;60645;56.968;24.196;2022-11-18T21:49:03;3.45;;;1.70;;
72603;SDS011;60645;56.968;24.196;2022-11-18T21:51:31;2.17;;;1.67;;
72603;SDS011;60645;56.968;24.196;2022-11-18T21:53:59;2.40;;;1.52;;
72603;SDS011;60645;56.968;24.196;2022-11-18T21:56:27;2.47;;;1.10;;
72603;SDS011;60645;56.968;24.196;2022-11-18T21:58:57;2.40;;;1.60;;
72603;SDS011;60645;56.968;24.196;2022-11-18T22:01:33;3.80;;;2.20;;
72603;SDS011;60645;56.968;24.196;2022-11-18T22:04:01;4.93;;;1.80;;
72603;SDS011;60645;56.968;24.196;2022-11-18T22:06:29;2.15;;;0.82;;
72603;SDS011;60645;56.968;24.196;2022-11-18T22:08:58;2.38;;;1.83;;
72603;SDS011;60645;56.968;24.196;2022-11-18T22:11:26;3.25;;;1.77;;
72603;SDS011;60645;56.968;24.196;2022-11-18T22:13:53;3.35;;;2.00;;
72603;SDS011;60645;56.968;24.196;2022-11-18T22:16:22;1.73;;;1.02;;
72603;SDS011;60645;56.968;24.196;2022-11-18T22:18:50;3.55;;;2.00;;
72603;SDS011;60645;56.968;24.196;2022-11-18T22:21:25;2.28;;;1.75;;
72603;SDS011;60645;56.968;24.196;2022-11-18T22:23:56;3.17;;;1.77;;
72603;SDS011;60645;56.968;24.196;2022-11-18T22:26:24;2.83;;;1.63;;
72603;SDS011;60645;56.968;24.196;2022-11-18T22:28:52;2.17;;;1.67;;
72603;SDS011;60645;56.968;24.196;2022-11-18T22:31:20;3.65;;;1.90;;
72603;SDS011;60645;56.968;24.196;2022-11-18T22:33:48;2.60;;;1.70;;
72603;SDS011;60645;56.968;24.196;2022-11-18T22:36:16;4.22;;;2.33;;
72603;SDS011;60645;56.968;24.196;2022-11-18T22:38:44;2.40;;;1.52;;
72603;SDS011;60645;56.968;24.196;2022-11-18T22:41:12;3.47;;;2.22;;
72603;SDS011;60645;56.968;24.196;2022-11-18T22:44:01;3.42;;;2.40;;
72603;SDS011;60645;56.968;24.196;2022-11-18T22:46:33;2.55;;;1.52;;
72603;SDS011;60645;56.968;24.196;2022-11-18T22:49:01;2.08;;;1.65;;
72603;SDS011;60645;56.968;24.196;2022-11-18T22:51:28;2.83;;;1.52;;
72603;SDS011;60645;56.968;24.196;2022-11-18T22:53:55;4.25;;;1.98;;
72603;SDS011;60645;56.968;24.196;2022-11-18T22:56:43;3.22;;;1.75;;
72603;SDS011;60645;56.968;24.196;2022-11-18T22:59:10;3.00;;;2.03;;
72603;SDS011;60645;56.968;24.196;2022-11-18T23:01:38;3.17;;;2.10;;